createdAt,value
2019-06-27T00:03:36.953Z,23.4
2019-06-27T00:08:39.304Z,23.2
2019-06-27T00:13:41.909Z,23.1
2019-06-27T00:18:44.513Z,22.9
2019-06-27T00:23:46.678Z,22.8
2019-06-27T00:28:49.148Z,22.7
2019-06-27T00:33:51.723Z,22.7
2019-06-27T00:38:54.072Z,22.6
2019-06-27T00:43:56.555Z,22.6
2019-06-27T00:48:59.436Z,22.5
2019-06-27T00:54:01.544Z,22.4
2019-06-27T00:59:03.943Z,22.2
2019-06-27T01:04:06.424Z,22.2
2019-06-27T01:09:08.852Z,22.1
2019-06-27T01:14:11.276Z,22.1
2019-06-27T01:19:13.797Z,22
2019-06-27T01:24:16.233Z,21.9
2019-06-27T01:29:18.701Z,21.8
2019-06-27T01:34:21.192Z,21.7
2019-06-27T01:39:23.666Z,21.7
2019-06-27T01:44:26.102Z,21.6
2019-06-27T01:49:28.483Z,21.5
2019-06-27T01:54:30.973Z,21.4
2019-06-27T01:59:33.548Z,21.4
2019-06-27T02:04:35.980Z,21.5
2019-06-27T02:09:38.306Z,21.6
2019-06-27T02:14:40.808Z,21.7
2019-06-27T02:19:43.236Z,21.7
2019-06-27T02:24:45.706Z,21.7
2019-06-27T02:29:48.179Z,21.8
2019-06-27T02:34:50.722Z,21.7
2019-06-27T02:39:53.151Z,21.6
2019-06-27T02:44:55.554Z,21.5
2019-06-27T02:49:58.014Z,21.5
2019-06-27T02:55:00.453Z,21.5
2019-06-27T03:00:03.054Z,21.5
2019-06-27T03:05:05.488Z,21.4
2019-06-27T03:10:07.853Z,21.3
2019-06-27T03:15:10.359Z,21.1
2019-06-27T03:20:12.760Z,20.9
2019-06-27T03:25:15.222Z,20.7
2019-06-27T03:30:17.774Z,20.6
2019-06-27T03:35:20.265Z,20.4
2019-06-27T03:40:22.645Z,20.4
2019-06-27T03:45:25.041Z,20.2
2019-06-27T03:50:27.519Z,20.2
2019-06-27T03:55:29.961Z,20.1
2019-06-27T04:00:32.428Z,20.2
2019-06-27T04:05:34.948Z,20.1
2019-06-27T04:10:37.473Z,20.2
2019-06-27T04:15:39.914Z,20.1
2019-06-27T04:20:42.304Z,20.1
2019-06-27T04:25:44.725Z,20.1
2019-06-27T04:30:47.279Z,20.1
2019-06-27T04:35:49.616Z,20.1
2019-06-27T04:40:52.091Z,20.1
2019-06-27T04:45:54.571Z,20.1
2019-06-27T04:50:56.982Z,20.1
2019-06-27T05:01:01.924Z,20.1
2019-06-27T05:06:04.375Z,20.1
2019-06-27T05:11:06.904Z,20.2
2019-06-27T05:16:09.453Z,20.3
2019-06-27T05:21:11.754Z,20.5
2019-06-27T05:26:14.462Z,20.4
2019-06-27T05:31:16.757Z,20.4
2019-06-27T05:36:19.172Z,20.5
2019-06-27T05:41:21.690Z,20.6
2019-06-27T05:46:24.154Z,21
2019-06-27T05:51:26.512Z,21.5
2019-06-27T05:56:28.972Z,22
2019-06-27T06:01:31.430Z,22.1
2019-06-27T06:06:34.007Z,22.1
2019-06-27T06:11:36.388Z,21.9
2019-06-27T06:16:38.816Z,21.6
2019-06-27T06:21:41.306Z,21.7
2019-06-27T06:26:43.701Z,22.1
2019-06-27T06:31:49.190Z,22.6
2019-06-27T06:36:48.727Z,23
2019-06-27T06:41:51.105Z,23.8
2019-06-27T06:46:53.549Z,24.1
2019-06-27T06:51:56.023Z,24.1
2019-06-27T06:56:58.471Z,23.9
2019-06-27T07:02:01.010Z,23.8
2019-06-27T07:07:03.409Z,24.4
2019-06-27T07:12:05.873Z,26.6
2019-06-27T07:17:08.307Z,27.2
2019-06-27T07:22:10.784Z,27.4
2019-06-27T07:27:13.224Z,27.7
2019-06-27T07:32:15.683Z,28.6
2019-06-27T07:37:18.147Z,30.3
2019-06-27T07:42:20.706Z,31.3
2019-06-27T07:52:25.518Z,37.4
2019-06-27T07:57:29.800Z,39.8
2019-06-27T08:02:30.502Z,41.9
2019-06-27T08:07:32.896Z,43.1
2019-06-27T08:12:35.365Z,44.3
2019-06-27T08:17:37.852Z,45.6
2019-06-27T08:22:40.326Z,46.6
2019-06-27T08:27:43.396Z,46.1
2019-06-27T08:37:47.698Z,47
2019-06-27T08:42:50.203Z,47.9
2019-06-27T08:47:52.779Z,48.3
2019-06-27T08:52:55.150Z,48.8
2019-06-27T08:57:57.664Z,48.5
2019-06-27T09:03:00.134Z,48.1
2019-06-27T09:13:05.032Z,48.4
2019-06-27T09:18:07.512Z,48.9
2019-06-27T09:23:09.867Z,49.5
2019-06-27T09:28:12.324Z,50.1
2019-06-27T09:33:14.826Z,50.6
2019-06-27T09:38:17.295Z,51
2019-06-27T09:43:19.812Z,51.1
2019-06-27T09:48:22.188Z,51
2019-06-27T09:53:24.689Z,50.8
2019-06-27T09:58:27.103Z,50.7
2019-06-27T10:03:29.586Z,51
2019-06-27T10:08:32.017Z,50.6
2019-06-27T10:28:41.883Z,51.7
2019-06-27T10:33:44.782Z,51.4
2019-06-27T10:38:46.814Z,51.6
2019-06-27T10:43:49.314Z,51.5
2019-06-27T10:48:51.770Z,51.3
2019-06-27T10:53:54.168Z,50.7
2019-06-27T10:58:56.626Z,50.4
2019-06-27T11:03:59.211Z,50.5
2019-06-27T11:14:04.173Z,50.8
2019-06-27T11:19:06.756Z,51
2019-06-27T11:24:08.941Z,50.8
2019-06-27T11:29:11.410Z,50.1
2019-06-27T11:34:13.874Z,50.1
2019-06-27T11:39:16.309Z,49.9
2019-06-27T11:44:18.813Z,49.6
2019-06-27T11:49:21.414Z,49.5
2019-06-27T11:54:23.721Z,49.5
2019-06-27T11:59:26.206Z,49.1
2019-06-27T12:04:28.695Z,49.2
2019-06-27T12:09:31.215Z,49.2
2019-06-27T12:14:33.587Z,48.9
2019-06-27T12:19:36.093Z,48.6
2019-06-27T12:24:38.522Z,47.8
2019-06-27T12:29:41.041Z,46.5
2019-06-27T12:34:43.780Z,44.4
2019-06-27T12:39:45.963Z,42.8
2019-06-27T12:44:48.453Z,42.3
2019-06-27T12:50:01.950Z,42.6
2019-06-27T12:54:53.349Z,43
2019-06-27T12:59:57.892Z,42.7
2019-06-27T13:04:59.189Z,41.3
2019-06-27T13:10:00.838Z,39.6
2019-06-27T13:15:03.157Z,37.5
2019-06-27T13:20:05.658Z,35.7
2019-06-27T13:25:08.059Z,34.3
2019-06-27T13:30:10.591Z,33.3
2019-06-27T13:35:12.995Z,32.4
2019-06-27T13:40:15.486Z,31.7
2019-06-27T13:45:17.964Z,31.1
2019-06-27T13:50:20.468Z,30.7
2019-06-27T13:55:24.271Z,30.4
2019-06-27T14:00:25.331Z,30.2
2019-06-27T14:05:29.834Z,30.1
2019-06-27T14:10:30.215Z,30
2019-06-27T14:15:32.841Z,29.9
2019-06-27T14:20:35.140Z,29.8
2019-06-27T14:25:37.706Z,29.7
2019-06-27T14:30:40.095Z,29.5
2019-06-27T14:35:42.521Z,29.4
2019-06-27T14:40:45.056Z,29.4
2019-06-27T14:45:47.587Z,29.4
2019-06-27T14:50:50.148Z,29.5
2019-06-27T14:55:53.031Z,29.4
2019-06-27T15:00:55.993Z,29.3
2019-06-27T15:06:00.320Z,29.3
2019-06-27T15:10:59.817Z,29.1
2019-06-27T15:16:11.592Z,29
2019-06-27T15:21:04.633Z,29.1
2019-06-27T15:26:07.129Z,29
2019-06-27T15:31:09.580Z,28.8
2019-06-27T15:36:12.023Z,28.7
2019-06-27T15:51:19.416Z,28.5
2019-06-27T15:56:21.862Z,28.4
2019-06-27T16:01:24.413Z,28.3
2019-06-27T16:06:26.805Z,28.1
2019-06-27T16:11:29.312Z,28
2019-06-27T16:16:31.689Z,27.8
2019-06-27T16:21:34.154Z,27.6
2019-06-27T16:26:36.820Z,27.5
2019-06-27T16:31:39.095Z,27.3
2019-06-27T16:36:41.575Z,27.2
2019-06-27T16:41:43.996Z,27.1
2019-06-27T16:46:46.453Z,27
2019-06-27T16:51:48.962Z,26.8
2019-06-27T16:56:51.463Z,26.6
2019-06-27T17:01:53.833Z,26.5
2019-06-27T17:06:56.290Z,26.3
2019-06-27T17:11:58.779Z,26.1
2019-06-27T17:17:01.355Z,26
2019-06-27T17:22:03.731Z,25.8
2019-06-27T17:27:06.571Z,25.7
2019-06-27T17:32:08.596Z,25.5
2019-06-27T17:37:11.017Z,25.4
2019-06-27T17:42:13.493Z,25.3
2019-06-27T17:47:15.974Z,25.1
2019-06-27T17:52:18.411Z,24.9
2019-06-27T17:57:21.156Z,24.8
2019-06-27T18:02:23.888Z,24.7
2019-06-27T18:07:25.981Z,24.5
2019-06-27T18:12:28.424Z,24.3
2019-06-27T18:17:33.793Z,24.2
2019-06-27T18:22:33.151Z,24
2019-06-27T18:27:35.624Z,23.8
2019-06-27T18:32:38.127Z,23.5
2019-06-27T18:37:40.580Z,23.2
2019-06-27T18:42:43.035Z,22.9
2019-06-27T18:47:45.468Z,22.7
2019-06-27T19:12:57.784Z,21.5
2019-06-27T19:18:00.512Z,21.3
2019-06-27T19:23:02.697Z,21.2
2019-06-27T19:28:05.194Z,20.9
2019-06-27T19:33:07.600Z,20.7
2019-06-27T19:38:10.063Z,20.5
2019-06-27T19:43:26.506Z,20.4
2019-06-27T19:48:15.177Z,20.1
2019-06-27T19:53:17.456Z,19.9
2019-06-27T20:03:22.388Z,19.5
2019-06-27T20:08:24.894Z,19.3
2019-06-27T20:13:27.278Z,19.2
2019-06-27T20:18:29.711Z,19
2019-06-27T20:23:32.226Z,18.9
2019-06-27T20:28:34.769Z,18.8
2019-06-27T20:33:37.168Z,18.6
2019-06-27T20:38:39.580Z,18.5
2019-06-27T20:43:42.150Z,18.4
2019-06-27T20:48:44.535Z,18.4
2019-06-27T20:53:46.941Z,18.2
2019-06-27T20:58:49.375Z,18.2
2019-06-27T21:03:51.936Z,18.1
2019-06-27T21:08:54.467Z,18
2019-06-27T21:13:56.764Z,17.9
2019-06-27T21:18:59.611Z,17.9
2019-06-27T21:24:01.750Z,17.7
2019-06-27T21:29:04.260Z,17.6
2019-06-27T21:34:06.676Z,17.5
2019-06-27T21:39:09.052Z,17.5
2019-06-27T21:44:11.513Z,17.4
2019-06-27T21:49:14.145Z,17.2
2019-06-27T21:54:16.452Z,17.1
2019-06-27T22:04:21.379Z,16.9
2019-06-27T22:09:25.195Z,16.8
2019-06-27T22:14:26.268Z,16.7
2019-06-27T22:19:28.718Z,16.6
2019-06-27T22:24:31.218Z,16.6
2019-06-27T22:29:33.718Z,16.5
2019-06-27T22:34:36.113Z,16.4
2019-06-27T22:39:40.590Z,16.3
2019-06-27T22:44:41.003Z,16.3
2019-06-27T22:49:43.450Z,16.1
2019-06-27T22:54:45.926Z,16
2019-06-27T22:59:48.398Z,16
2019-06-27T23:04:50.843Z,15.9
2019-06-27T23:09:57.122Z,15.7
2019-06-27T23:14:55.899Z,15.6
2019-06-27T23:19:58.248Z,15.5
2019-06-27T23:25:02.104Z,15.4
2019-06-27T23:30:03.201Z,15.4
2019-06-27T23:35:05.581Z,15.3
2019-06-27T23:40:13.807Z,15.2
2019-06-27T23:45:10.520Z,15.1
2019-06-27T23:55:15.529Z,15
